sensor_id;sensor_type;location;lat;lon;timestamp;P1;durP1;ratioP1;P2;durP2;ratioP2
67816;SDS011;54614;47.576;7.524;2022-12-29T00:02:23;1.50;;;1.40;;
67816;SDS011;54614;47.576;7.524;2022-12-29T00:04:49;1.37;;;1.30;;
67816;SDS011;54614;47.576;7.524;2022-12-29T00:07:16;1.43;;;1.40;;
67816;SDS011;54614;47.576;7.524;2022-12-29T00:09:43;1.60;;;1.50;;
67816;SDS011;54614;47.576;7.524;2022-12-29T00:12:09;1.20;;;1.20;;
67816;SDS011;54614;47.576;7.524;2022-12-29T00:14:35;1.63;;;1.53;;
67816;SDS011;54614;47.576;7.524;2022-12-29T00:17:19;1.50;;;1.40;;
67816;SDS011;54614;47.576;7.524;2022-12-29T00:19:45;1.37;;;1.27;;
67816;SDS011;54614;47.576;7.524;2022-12-29T00:22:30;1.30;;;1.30;;
67816;SDS011;54614;47.576;7.524;2022-12-29T00:25:14;1.47;;;1.37;;
67816;SDS011;54614;47.576;7.524;2022-12-29T00:27:58;1.63;;;1.53;;
67816;SDS011;54614;47.576;7.524;2022-12-29T00:30:42;1.33;;;1.27;;
67816;SDS011;54614;47.576;7.524;2022-12-29T00:33:30;1.60;;;1.50;;
67816;SDS011;54614;47.576;7.524;2022-12-29T00:39:12;1.67;;;1.57;;
67816;SDS011;54614;47.576;7.524;2022-12-29T00:42:05;1.30;;;1.30;;
67816;SDS011;54614;47.576;7.524;2022-12-29T00:44:51;1.60;;;1.50;;
67816;SDS011;54614;47.576;7.524;2022-12-29T00:47:17;1.60;;;1.50;;
67816;SDS011;54614;47.576;7.524;2022-12-29T00:49:43;1.50;;;1.40;;
67816;SDS011;54614;47.576;7.524;2022-12-29T00:52:10;1.40;;;1.40;;
67816;SDS011;54614;47.576;7.524;2022-12-29T00:54:37;1.70;;;1.60;;
67816;SDS011;54614;47.576;7.524;2022-12-29T00:57:06;1.33;;;1.33;;
67816;SDS011;54614;47.576;7.524;2022-12-29T00:59:35;1.50;;;1.40;;
67816;SDS011;54614;47.576;7.524;2022-12-29T01:02:02;1.50;;;1.40;;
67816;SDS011;54614;47.576;7.524;2022-12-29T01:04:28;1.50;;;1.40;;
67816;SDS011;54614;47.576;7.524;2022-12-29T01:06:54;1.30;;;1.30;;
67816;SDS011;54614;47.576;7.524;2022-12-29T01:09:20;1.23;;;1.23;;
67816;SDS011;54614;47.576;7.524;2022-12-29T01:12:05;1.63;;;1.53;;
67816;SDS011;54614;47.576;7.524;2022-12-29T01:14:33;1.50;;;1.40;;
67816;SDS011;54614;47.576;7.524;2022-12-29T01:17:00;1.60;;;1.50;;
67816;SDS011;54614;47.576;7.524;2022-12-29T01:19:26;1.40;;;1.40;;
67816;SDS011;54614;47.576;7.524;2022-12-29T01:21:52;1.60;;;1.50;;
67816;SDS011;54614;47.576;7.524;2022-12-29T01:24:18;1.43;;;1.37;;
67816;SDS011;54614;47.576;7.524;2022-12-29T01:26:46;1.57;;;1.50;;
67816;SDS011;54614;47.576;7.524;2022-12-29T01:29:14;1.60;;;1.50;;
67816;SDS011;54614;47.576;7.524;2022-12-29T01:31:39;1.60;;;1.50;;
67816;SDS011;54614;47.576;7.524;2022-12-29T01:34:05;1.40;;;1.37;;
67816;SDS011;54614;47.576;7.524;2022-12-29T01:36:32;1.50;;;1.40;;
67816;SDS011;54614;47.576;7.524;2022-12-29T01:38:58;1.57;;;1.47;;
67816;SDS011;54614;47.576;7.524;2022-12-29T01:41:24;1.47;;;1.40;;
67816;SDS011;54614;47.576;7.524;2022-12-29T01:43:54;1.40;;;1.40;;
67816;SDS011;54614;47.576;7.524;2022-12-29T01:49:05;1.60;;;1.50;;
67816;SDS011;54614;47.576;7.524;2022-12-29T01:51:53;1.33;;;1.30;;
67816;SDS011;54614;47.576;7.524;2022-12-29T01:54:28;1.50;;;1.40;;
67816;SDS011;54614;47.576;7.524;2022-12-29T01:57:16;1.60;;;1.50;;
67816;SDS011;54614;47.576;7.524;2022-12-29T02:00:06;1.90;;;1.80;;
67816;SDS011;54614;47.576;7.524;2022-12-29T02:02:36;1.60;;;1.50;;
67816;SDS011;54614;47.576;7.524;2022-12-29T02:05:04;1.30;;;1.30;;
67816;SDS011;54614;47.576;7.524;2022-12-29T02:07:37;1.30;;;1.30;;
67816;SDS011;54614;47.576;7.524;2022-12-29T02:10:05;1.60;;;1.50;;
67816;SDS011;54614;47.576;7.524;2022-12-29T02:12:31;1.47;;;1.40;;
67816;SDS011;54614;47.576;7.524;2022-12-29T02:14:58;1.60;;;1.50;;
67816;SDS011;54614;47.576;7.524;2022-12-29T02:20:55;1.50;;;1.40;;
67816;SDS011;54614;47.576;7.524;2022-12-29T02:41:30;1.60;;;1.50;;
67816;SDS011;54614;47.576;7.524;2022-12-29T02:44:12;1.50;;;1.40;;
67816;SDS011;54614;47.576;7.524;2022-12-29T02:46:53;1.30;;;1.30;;
67816;SDS011;54614;47.576;7.524;2022-12-29T02:49:40;1.60;;;1.50;;
67816;SDS011;54614;47.576;7.524;2022-12-29T02:52:36;1.50;;;1.43;;
67816;SDS011;54614;47.576;7.524;2022-12-29T02:55:15;1.53;;;1.43;;
67816;SDS011;54614;47.576;7.524;2022-12-29T02:57:40;1.47;;;1.37;;
67816;SDS011;54614;47.576;7.524;2022-12-29T03:00:08;1.53;;;1.50;;
67816;SDS011;54614;47.576;7.524;2022-12-29T03:06:14;1.57;;;1.47;;
67816;SDS011;54614;47.576;7.524;2022-12-29T03:15:32;1.63;;;1.53;;
67816;SDS011;54614;47.576;7.524;2022-12-29T03:24:34;1.30;;;1.30;;
67816;SDS011;54614;47.576;7.524;2022-12-29T03:27:06;1.53;;;1.43;;
67816;SDS011;54614;47.576;7.524;2022-12-29T03:29:50;1.40;;;1.30;;
67816;SDS011;54614;47.576;7.524;2022-12-29T03:32:23;1.40;;;1.30;;
67816;SDS011;54614;47.576;7.524;2022-12-29T03:34:56;1.37;;;1.30;;
67816;SDS011;54614;47.576;7.524;2022-12-29T03:37:26;1.43;;;1.33;;
67816;SDS011;54614;47.576;7.524;2022-12-29T03:40:02;1.47;;;1.37;;
67816;SDS011;54614;47.576;7.524;2022-12-29T03:42:30;1.40;;;1.40;;
67816;SDS011;54614;47.576;7.524;2022-12-29T03:45:00;1.60;;;1.50;;
67816;SDS011;54614;47.576;7.524;2022-12-29T03:47:26;1.40;;;1.30;;
67816;SDS011;54614;47.576;7.524;2022-12-29T03:49:52;1.40;;;1.40;;
67816;SDS011;54614;47.576;7.524;2022-12-29T03:52:18;1.20;;;1.20;;
67816;SDS011;54614;47.576;7.524;2022-12-29T03:54:44;1.30;;;1.30;;
67816;SDS011;54614;47.576;7.524;2022-12-29T03:57:10;1.30;;;1.30;;
67816;SDS011;54614;47.576;7.524;2022-12-29T03:59:36;1.23;;;1.23;;
67816;SDS011;54614;47.576;7.524;2022-12-29T04:02:02;1.60;;;1.50;;
67816;SDS011;54614;47.576;7.524;2022-12-29T04:04:28;1.50;;;1.40;;
67816;SDS011;54614;47.576;7.524;2022-12-29T04:06:54;1.30;;;1.30;;
67816;SDS011;54614;47.576;7.524;2022-12-29T04:09:20;1.57;;;1.47;;
67816;SDS011;54614;47.576;7.524;2022-12-29T04:11:45;1.50;;;1.40;;
67816;SDS011;54614;47.576;7.524;2022-12-29T04:14:11;1.27;;;1.27;;
67816;SDS011;54614;47.576;7.524;2022-12-29T04:16:37;1.30;;;1.30;;
67816;SDS011;54614;47.576;7.524;2022-12-29T04:19:04;1.60;;;1.50;;
67816;SDS011;54614;47.576;7.524;2022-12-29T04:21:32;1.13;;;1.13;;
67816;SDS011;54614;47.576;7.524;2022-12-29T04:23:58;1.53;;;1.43;;
67816;SDS011;54614;47.576;7.524;2022-12-29T04:26:24;1.60;;;1.50;;
67816;SDS011;54614;47.576;7.524;2022-12-29T04:28:50;1.47;;;1.37;;
67816;SDS011;54614;47.576;7.524;2022-12-29T04:31:16;1.60;;;1.50;;
67816;SDS011;54614;47.576;7.524;2022-12-29T04:33:42;1.33;;;1.30;;
67816;SDS011;54614;47.576;7.524;2022-12-29T04:36:08;1.57;;;1.47;;
67816;SDS011;54614;47.576;7.524;2022-12-29T04:38:34;1.60;;;1.50;;
67816;SDS011;54614;47.576;7.524;2022-12-29T04:41:01;1.40;;;1.30;;
67816;SDS011;54614;47.576;7.524;2022-12-29T04:43:27;1.57;;;1.47;;
67816;SDS011;54614;47.576;7.524;2022-12-29T04:45:54;1.50;;;1.40;;
67816;SDS011;54614;47.576;7.524;2022-12-29T04:48:20;1.50;;;1.40;;
67816;SDS011;54614;47.576;7.524;2022-12-29T04:50:47;1.40;;;1.33;;
67816;SDS011;54614;47.576;7.524;2022-12-29T04:53:14;1.30;;;1.30;;
67816;SDS011;54614;47.576;7.524;2022-12-29T04:55:41;1.30;;;1.20;;
67816;SDS011;54614;47.576;7.524;2022-12-29T04:58:08;1.40;;;1.40;;
67816;SDS011;54614;47.576;7.524;2022-12-29T05:00:34;1.27;;;1.20;;
67816;SDS011;54614;47.576;7.524;2022-12-29T05:03:00;1.33;;;1.27;;
67816;SDS011;54614;47.576;7.524;2022-12-29T05:05:26;1.27;;;1.27;;
67816;SDS011;54614;47.576;7.524;2022-12-29T05:07:52;1.27;;;1.27;;
67816;SDS011;54614;47.576;7.524;2022-12-29T05:10:18;1.17;;;1.17;;
67816;SDS011;54614;47.576;7.524;2022-12-29T05:12:44;1.30;;;1.30;;
67816;SDS011;54614;47.576;7.524;2022-12-29T05:15:10;1.43;;;1.33;;
67816;SDS011;54614;47.576;7.524;2022-12-29T05:17:36;1.20;;;1.20;;
67816;SDS011;54614;47.576;7.524;2022-12-29T05:20:03;1.50;;;1.40;;
67816;SDS011;54614;47.576;7.524;2022-12-29T05:22:30;1.13;;;1.13;;
67816;SDS011;54614;47.576;7.524;2022-12-29T05:24:56;1.60;;;1.50;;
67816;SDS011;54614;47.576;7.524;2022-12-29T05:27:22;1.43;;;1.33;;
67816;SDS011;54614;47.576;7.524;2022-12-29T05:29:48;1.37;;;1.37;;
67816;SDS011;54614;47.576;7.524;2022-12-29T05:32:14;1.37;;;1.30;;
67816;SDS011;54614;47.576;7.524;2022-12-29T05:34:40;1.20;;;1.20;;
67816;SDS011;54614;47.576;7.524;2022-12-29T05:37:06;1.27;;;1.27;;
67816;SDS011;54614;47.576;7.524;2022-12-29T05:39:31;1.43;;;1.33;;
67816;SDS011;54614;47.576;7.524;2022-12-29T05:41:57;1.20;;;1.20;;
67816;SDS011;54614;47.576;7.524;2022-12-29T05:44:23;1.37;;;1.27;;
67816;SDS011;54614;47.576;7.524;2022-12-29T05:46:49;1.27;;;1.20;;
67816;SDS011;54614;47.576;7.524;2022-12-29T05:49:15;1.43;;;1.40;;
67816;SDS011;54614;47.576;7.524;2022-12-29T05:51:41;1.30;;;1.30;;
67816;SDS011;54614;47.576;7.524;2022-12-29T05:54:07;1.50;;;1.40;;
67816;SDS011;54614;47.576;7.524;2022-12-29T05:56:33;1.40;;;1.30;;
67816;SDS011;54614;47.576;7.524;2022-12-29T05:58:59;1.30;;;1.30;;
67816;SDS011;54614;47.576;7.524;2022-12-29T06:01:25;1.20;;;1.20;;
67816;SDS011;54614;47.576;7.524;2022-12-29T06:03:50;1.20;;;1.20;;
67816;SDS011;54614;47.576;7.524;2022-12-29T06:06:17;1.03;;;1.03;;
67816;SDS011;54614;47.576;7.524;2022-12-29T06:08:43;1.20;;;1.20;;
67816;SDS011;54614;47.576;7.524;2022-12-29T06:11:09;1.40;;;1.30;;
67816;SDS011;54614;47.576;7.524;2022-12-29T06:13:35;1.20;;;1.20;;
67816;SDS011;54614;47.576;7.524;2022-12-29T06:16:01;1.20;;;1.20;;
67816;SDS011;54614;47.576;7.524;2022-12-29T06:18:27;1.20;;;1.20;;
67816;SDS011;54614;47.576;7.524;2022-12-29T06:20:53;1.20;;;1.20;;
67816;SDS011;54614;47.576;7.524;2022-12-29T06:23:23;1.20;;;1.20;;
67816;SDS011;54614;47.576;7.524;2022-12-29T06:25:49;1.30;;;1.30;;
67816;SDS011;54614;47.576;7.524;2022-12-29T06:28:15;1.10;;;1.10;;
67816;SDS011;54614;47.576;7.524;2022-12-29T06:30:43;1.13;;;1.13;;
67816;SDS011;54614;47.576;7.524;2022-12-29T06:33:12;1.10;;;1.10;;
67816;SDS011;54614;47.576;7.524;2022-12-29T06:35:38;1.27;;;1.20;;
67816;SDS011;54614;47.576;7.524;2022-12-29T06:38:04;1.10;;;1.10;;
67816;SDS011;54614;47.576;7.524;2022-12-29T06:40:30;1.30;;;1.20;;
67816;SDS011;54614;47.576;7.524;2022-12-29T06:42:56;1.10;;;1.10;;
67816;SDS011;54614;47.576;7.524;2022-12-29T06:45:22;1.60;;;1.50;;
67816;SDS011;54614;47.576;7.524;2022-12-29T06:47:49;1.20;;;1.20;;
67816;SDS011;54614;47.576;7.524;2022-12-29T06:50:15;1.20;;;1.20;;
67816;SDS011;54614;47.576;7.524;2022-12-29T06:52:41;1.20;;;1.20;;
67816;SDS011;54614;47.576;7.524;2022-12-29T06:55:07;1.17;;;1.17;;
67816;SDS011;54614;47.576;7.524;2022-12-29T06:57:33;1.00;;;1.00;;
67816;SDS011;54614;47.576;7.524;2022-12-29T06:59:59;1.20;;;1.20;;
67816;SDS011;54614;47.576;7.524;2022-12-29T07:02:24;1.10;;;1.10;;
67816;SDS011;54614;47.576;7.524;2022-12-29T07:04:51;1.10;;;1.10;;
67816;SDS011;54614;47.576;7.524;2022-12-29T07:07:18;1.17;;;1.17;;
67816;SDS011;54614;47.576;7.524;2022-12-29T07:09:45;1.23;;;1.20;;
67816;SDS011;54614;47.576;7.524;2022-12-29T07:12:11;1.30;;;1.30;;
67816;SDS011;54614;47.576;7.524;2022-12-29T07:14:37;1.10;;;1.10;;
67816;SDS011;54614;47.576;7.524;2022-12-29T07:17:04;1.17;;;1.17;;
67816;SDS011;54614;47.576;7.524;2022-12-29T07:19:31;1.20;;;1.20;;
67816;SDS011;54614;47.576;7.524;2022-12-29T07:21:57;1.10;;;1.10;;
67816;SDS011;54614;47.576;7.524;2022-12-29T07:24:24;1.10;;;1.10;;
67816;SDS011;54614;47.576;7.524;2022-12-29T07:26:51;1.13;;;1.10;;
67816;SDS011;54614;47.576;7.524;2022-12-29T07:29:17;1.20;;;1.10;;
67816;SDS011;54614;47.576;7.524;2022-12-29T07:31:43;1.10;;;1.10;;
67816;SDS011;54614;47.576;7.524;2022-12-29T07:34:09;1.10;;;1.10;;
67816;SDS011;54614;47.576;7.524;2022-12-29T07:36:35;1.10;;;1.10;;
67816;SDS011;54614;47.576;7.524;2022-12-29T07:39:01;1.10;;;1.10;;
67816;SDS011;54614;47.576;7.524;2022-12-29T07:41:28;1.07;;;1.00;;
67816;SDS011;54614;47.576;7.524;2022-12-29T07:43:54;1.20;;;1.20;;
67816;SDS011;54614;47.576;7.524;2022-12-29T07:46:19;1.30;;;1.20;;
67816;SDS011;54614;47.576;7.524;2022-12-29T07:48:45;1.60;;;1.27;;
67816;SDS011;54614;47.576;7.524;2022-12-29T07:51:11;1.10;;;1.10;;
67816;SDS011;54614;47.576;7.524;2022-12-29T07:53:37;1.10;;;1.10;;
67816;SDS011;54614;47.576;7.524;2022-12-29T07:56:03;1.10;;;1.10;;
67816;SDS011;54614;47.576;7.524;2022-12-29T07:58:29;1.27;;;1.07;;
67816;SDS011;54614;47.576;7.524;2022-12-29T08:00:55;1.20;;;1.20;;
67816;SDS011;54614;47.576;7.524;2022-12-29T08:03:21;1.20;;;1.20;;
67816;SDS011;54614;47.576;7.524;2022-12-29T08:05:48;1.13;;;1.13;;
67816;SDS011;54614;47.576;7.524;2022-12-29T08:08:14;1.07;;;1.07;;
67816;SDS011;54614;47.576;7.524;2022-12-29T08:10:40;1.10;;;1.10;;
67816;SDS011;54614;47.576;7.524;2022-12-29T08:13:06;1.10;;;1.10;;
67816;SDS011;54614;47.576;7.524;2022-12-29T08:15:37;1.10;;;1.10;;
67816;SDS011;54614;47.576;7.524;2022-12-29T08:18:03;1.17;;;1.17;;
67816;SDS011;54614;47.576;7.524;2022-12-29T08:20:29;1.07;;;1.07;;
67816;SDS011;54614;47.576;7.524;2022-12-29T08:22:55;1.30;;;1.30;;
67816;SDS011;54614;47.576;7.524;2022-12-29T08:25:21;1.10;;;1.10;;
67816;SDS011;54614;47.576;7.524;2022-12-29T08:27:47;1.10;;;1.10;;
67816;SDS011;54614;47.576;7.524;2022-12-29T08:30:13;1.03;;;1.03;;
67816;SDS011;54614;47.576;7.524;2022-12-29T08:32:39;1.10;;;1.10;;
67816;SDS011;54614;47.576;7.524;2022-12-29T08:35:05;1.10;;;1.10;;
67816;SDS011;54614;47.576;7.524;2022-12-29T08:37:32;1.10;;;1.10;;
67816;SDS011;54614;47.576;7.524;2022-12-29T08:40:01;1.00;;;1.00;;
67816;SDS011;54614;47.576;7.524;2022-12-29T08:42:29;1.00;;;1.00;;
67816;SDS011;54614;47.576;7.524;2022-12-29T08:44:59;1.10;;;1.10;;
67816;SDS011;54614;47.576;7.524;2022-12-29T08:47:25;1.27;;;1.27;;
67816;SDS011;54614;47.576;7.524;2022-12-29T08:49:52;1.07;;;1.07;;
67816;SDS011;54614;47.576;7.524;2022-12-29T08:52:18;1.10;;;1.10;;
67816;SDS011;54614;47.576;7.524;2022-12-29T08:54:44;1.10;;;1.10;;
67816;SDS011;54614;47.576;7.524;2022-12-29T08:57:10;1.10;;;1.10;;
67816;SDS011;54614;47.576;7.524;2022-12-29T08:59:36;1.03;;;1.03;;
67816;SDS011;54614;47.576;7.524;2022-12-29T09:02:02;1.27;;;1.17;;
67816;SDS011;54614;47.576;7.524;2022-12-29T09:04:27;1.10;;;1.10;;
67816;SDS011;54614;47.576;7.524;2022-12-29T09:06:53;0.93;;;0.93;;
67816;SDS011;54614;47.576;7.524;2022-12-29T09:09:20;1.10;;;1.10;;
67816;SDS011;54614;47.576;7.524;2022-12-29T09:11:46;1.07;;;1.07;;
67816;SDS011;54614;47.576;7.524;2022-12-29T09:14:12;1.30;;;1.10;;
67816;SDS011;54614;47.576;7.524;2022-12-29T09:16:38;1.10;;;1.10;;
67816;SDS011;54614;47.576;7.524;2022-12-29T09:19:04;1.10;;;1.10;;
67816;SDS011;54614;47.576;7.524;2022-12-29T09:21:30;1.00;;;1.00;;
67816;SDS011;54614;47.576;7.524;2022-12-29T09:23:57;1.20;;;1.20;;
67816;SDS011;54614;47.576;7.524;2022-12-29T09:26:22;1.00;;;1.00;;
67816;SDS011;54614;47.576;7.524;2022-12-29T09:28:48;1.03;;;1.03;;
67816;SDS011;54614;47.576;7.524;2022-12-29T09:31:14;1.10;;;1.10;;
67816;SDS011;54614;47.576;7.524;2022-12-29T09:33:40;1.10;;;1.10;;
67816;SDS011;54614;47.576;7.524;2022-12-29T09:36:06;1.10;;;1.10;;
67816;SDS011;54614;47.576;7.524;2022-12-29T09:38:33;1.03;;;1.03;;
67816;SDS011;54614;47.576;7.524;2022-12-29T09:41:07;1.10;;;1.10;;
67816;SDS011;54614;47.576;7.524;2022-12-29T09:47:16;1.00;;;1.00;;
67816;SDS011;54614;47.576;7.524;2022-12-29T09:52:59;1.07;;;1.03;;
67816;SDS011;54614;47.576;7.524;2022-12-29T09:55:52;1.00;;;1.00;;
67816;SDS011;54614;47.576;7.524;2022-12-29T09:58:24;1.10;;;1.10;;
67816;SDS011;54614;47.576;7.524;2022-12-29T10:03:40;1.10;;;1.10;;
67816;SDS011;54614;47.576;7.524;2022-12-29T10:06:24;1.20;;;1.10;;
67816;SDS011;54614;47.576;7.524;2022-12-29T10:18:10;1.00;;;1.00;;
67816;SDS011;54614;47.576;7.524;2022-12-29T10:24:04;1.00;;;1.00;;
67816;SDS011;54614;47.576;7.524;2022-12-29T10:26:40;1.03;;;1.03;;
67816;SDS011;54614;47.576;7.524;2022-12-29T10:32:00;1.00;;;1.00;;
67816;SDS011;54614;47.576;7.524;2022-12-29T10:34:36;1.40;;;1.30;;
67816;SDS011;54614;47.576;7.524;2022-12-29T10:40:27;1.00;;;1.00;;
67816;SDS011;54614;47.576;7.524;2022-12-29T10:43:18;0.97;;;0.97;;
67816;SDS011;54614;47.576;7.524;2022-12-29T10:45:58;1.00;;;1.00;;
67816;SDS011;54614;47.576;7.524;2022-12-29T10:48:32;0.97;;;0.97;;
67816;SDS011;54614;47.576;7.524;2022-12-29T10:51:01;1.00;;;1.00;;
67816;SDS011;54614;47.576;7.524;2022-12-29T10:53:33;0.93;;;0.93;;
67816;SDS011;54614;47.576;7.524;2022-12-29T10:56:13;1.10;;;1.10;;
67816;SDS011;54614;47.576;7.524;2022-12-29T10:58:52;1.00;;;1.00;;
67816;SDS011;54614;47.576;7.524;2022-12-29T11:01:26;1.10;;;1.10;;
67816;SDS011;54614;47.576;7.524;2022-12-29T11:04:08;1.00;;;1.00;;
67816;SDS011;54614;47.576;7.524;2022-12-29T11:06:56;1.07;;;1.07;;
67816;SDS011;54614;47.576;7.524;2022-12-29T11:09:31;1.07;;;1.03;;
67816;SDS011;54614;47.576;7.524;2022-12-29T11:12:23;1.10;;;1.10;;
67816;SDS011;54614;47.576;7.524;2022-12-29T11:15:11;0.90;;;0.90;;
67816;SDS011;54614;47.576;7.524;2022-12-29T11:17:43;0.90;;;0.90;;
67816;SDS011;54614;47.576;7.524;2022-12-29T11:20:32;1.10;;;1.10;;
67816;SDS011;54614;47.576;7.524;2022-12-29T11:23:05;0.80;;;0.80;;
67816;SDS011;54614;47.576;7.524;2022-12-29T11:26:05;1.13;;;1.13;;
67816;SDS011;54614;47.576;7.524;2022-12-29T11:28:39;1.03;;;1.03;;
67816;SDS011;54614;47.576;7.524;2022-12-29T11:31:08;0.90;;;0.90;;
67816;SDS011;54614;47.576;7.524;2022-12-29T11:33:39;1.00;;;1.00;;
67816;SDS011;54614;47.576;7.524;2022-12-29T11:38:37;1.00;;;1.00;;
67816;SDS011;54614;47.576;7.524;2022-12-29T11:41:10;1.00;;;1.00;;
67816;SDS011;54614;47.576;7.524;2022-12-29T11:43:43;1.00;;;1.00;;
67816;SDS011;54614;47.576;7.524;2022-12-29T11:46:29;1.10;;;1.10;;
67816;SDS011;54614;47.576;7.524;2022-12-29T11:49:01;1.13;;;1.13;;
67816;SDS011;54614;47.576;7.524;2022-12-29T11:51:34;1.00;;;1.00;;
67816;SDS011;54614;47.576;7.524;2022-12-29T11:54:06;1.07;;;1.00;;
67816;SDS011;54614;47.576;7.524;2022-12-29T11:56:44;1.03;;;1.03;;
67816;SDS011;54614;47.576;7.524;2022-12-29T11:59:44;1.10;;;1.10;;
67816;SDS011;54614;47.576;7.524;2022-12-29T12:04:54;1.60;;;1.00;;
67816;SDS011;54614;47.576;7.524;2022-12-29T12:07:47;0.90;;;0.90;;
67816;SDS011;54614;47.576;7.524;2022-12-29T12:10:27;0.90;;;0.90;;
67816;SDS011;54614;47.576;7.524;2022-12-29T12:16:24;1.07;;;1.07;;
67816;SDS011;54614;47.576;7.524;2022-12-29T12:19:28;1.40;;;1.30;;
67816;SDS011;54614;47.576;7.524;2022-12-29T12:22:11;0.93;;;0.93;;
67816;SDS011;54614;47.576;7.524;2022-12-29T12:24:49;1.03;;;1.03;;
67816;SDS011;54614;47.576;7.524;2022-12-29T12:27:33;1.00;;;1.00;;
67816;SDS011;54614;47.576;7.524;2022-12-29T12:38:23;1.00;;;1.00;;
67816;SDS011;54614;47.576;7.524;2022-12-29T13:06:54;0.93;;;0.93;;
67816;SDS011;54614;47.576;7.524;2022-12-29T13:10:41;1.10;;;1.10;;
67816;SDS011;54614;47.576;7.524;2022-12-29T13:21:57;0.97;;;0.97;;
67816;SDS011;54614;47.576;7.524;2022-12-29T13:27:42;1.00;;;1.00;;
67816;SDS011;54614;47.576;7.524;2022-12-29T13:30:51;0.97;;;0.97;;
67816;SDS011;54614;47.576;7.524;2022-12-29T13:36:52;0.90;;;0.90;;
67816;SDS011;54614;47.576;7.524;2022-12-29T13:39:37;1.00;;;1.00;;
67816;SDS011;54614;47.576;7.524;2022-12-29T13:42:11;1.10;;;1.10;;
67816;SDS011;54614;47.576;7.524;2022-12-29T13:48:27;1.00;;;1.00;;
67816;SDS011;54614;47.576;7.524;2022-12-29T13:50:47;1.00;;;1.00;;
67816;SDS011;54614;47.576;7.524;2022-12-29T13:56:31;0.97;;;0.97;;
67816;SDS011;54614;47.576;7.524;2022-12-29T14:02:31;1.00;;;1.00;;
67816;SDS011;54614;47.576;7.524;2022-12-29T14:07:59;1.00;;;1.00;;
67816;SDS011;54614;47.576;7.524;2022-12-29T14:13:03;1.10;;;1.10;;
67816;SDS011;54614;47.576;7.524;2022-12-29T14:15:40;1.00;;;1.00;;
67816;SDS011;54614;47.576;7.524;2022-12-29T14:20:53;1.00;;;1.00;;
67816;SDS011;54614;47.576;7.524;2022-12-29T14:23:37;1.00;;;1.00;;
67816;SDS011;54614;47.576;7.524;2022-12-29T14:26:16;0.90;;;0.90;;
67816;SDS011;54614;47.576;7.524;2022-12-29T14:28:54;1.07;;;0.97;;
67816;SDS011;54614;47.576;7.524;2022-12-29T14:36:38;0.97;;;0.97;;
67816;SDS011;54614;47.576;7.524;2022-12-29T14:39:28;0.97;;;0.97;;
67816;SDS011;54614;47.576;7.524;2022-12-29T14:47:22;1.00;;;1.00;;
67816;SDS011;54614;47.576;7.524;2022-12-29T14:50:37;1.00;;;1.00;;
67816;SDS011;54614;47.576;7.524;2022-12-29T14:53:06;0.90;;;0.90;;
67816;SDS011;54614;47.576;7.524;2022-12-29T14:56:11;0.93;;;0.93;;
67816;SDS011;54614;47.576;7.524;2022-12-29T14:58:43;0.90;;;0.90;;
67816;SDS011;54614;47.576;7.524;2022-12-29T15:01:20;1.00;;;1.00;;
67816;SDS011;54614;47.576;7.524;2022-12-29T15:04:16;1.00;;;1.00;;
67816;SDS011;54614;47.576;7.524;2022-12-29T15:06:57;1.00;;;1.00;;
67816;SDS011;54614;47.576;7.524;2022-12-29T15:15:10;1.00;;;1.00;;
67816;SDS011;54614;47.576;7.524;2022-12-29T15:17:51;1.00;;;1.00;;
67816;SDS011;54614;47.576;7.524;2022-12-29T15:20:28;0.87;;;0.87;;
67816;SDS011;54614;47.576;7.524;2022-12-29T15:23:03;0.90;;;0.90;;
67816;SDS011;54614;47.576;7.524;2022-12-29T15:25:36;0.80;;;0.80;;
67816;SDS011;54614;47.576;7.524;2022-12-29T15:28:18;1.10;;;1.10;;
67816;SDS011;54614;47.576;7.524;2022-12-29T15:30:50;0.90;;;0.90;;
67816;SDS011;54614;47.576;7.524;2022-12-29T15:33:27;0.90;;;0.90;;
67816;SDS011;54614;47.576;7.524;2022-12-29T15:35:54;1.00;;;1.00;;
67816;SDS011;54614;47.576;7.524;2022-12-29T15:38:28;1.00;;;1.00;;
67816;SDS011;54614;47.576;7.524;2022-12-29T15:41:00;1.03;;;1.03;;
67816;SDS011;54614;47.576;7.524;2022-12-29T15:43:35;0.90;;;0.90;;
67816;SDS011;54614;47.576;7.524;2022-12-29T15:46:23;0.90;;;0.90;;
67816;SDS011;54614;47.576;7.524;2022-12-29T15:48:49;0.90;;;0.90;;
67816;SDS011;54614;47.576;7.524;2022-12-29T15:51:19;0.90;;;0.90;;
67816;SDS011;54614;47.576;7.524;2022-12-29T15:53:59;0.90;;;0.90;;
67816;SDS011;54614;47.576;7.524;2022-12-29T15:56:29;0.90;;;0.90;;
67816;SDS011;54614;47.576;7.524;2022-12-29T15:58:57;0.90;;;0.90;;
67816;SDS011;54614;47.576;7.524;2022-12-29T16:01:32;0.90;;;0.90;;
67816;SDS011;54614;47.576;7.524;2022-12-29T16:04:02;0.90;;;0.90;;
67816;SDS011;54614;47.576;7.524;2022-12-29T16:06:33;0.90;;;0.90;;
67816;SDS011;54614;47.576;7.524;2022-12-29T16:09:05;0.93;;;0.93;;
67816;SDS011;54614;47.576;7.524;2022-12-29T16:11:43;1.00;;;1.00;;
67816;SDS011;54614;47.576;7.524;2022-12-29T16:14:17;1.10;;;1.10;;
67816;SDS011;54614;47.576;7.524;2022-12-29T16:16:53;1.03;;;1.03;;
67816;SDS011;54614;47.576;7.524;2022-12-29T16:19:36;0.90;;;0.90;;
67816;SDS011;54614;47.576;7.524;2022-12-29T16:22:09;0.90;;;0.90;;
67816;SDS011;54614;47.576;7.524;2022-12-29T16:24:42;0.93;;;0.93;;
67816;SDS011;54614;47.576;7.524;2022-12-29T16:30:06;0.93;;;0.93;;
67816;SDS011;54614;47.576;7.524;2022-12-29T16:32:56;1.03;;;1.03;;
67816;SDS011;54614;47.576;7.524;2022-12-29T16:35:28;0.90;;;0.90;;
67816;SDS011;54614;47.576;7.524;2022-12-29T16:38:17;0.90;;;0.90;;
67816;SDS011;54614;47.576;7.524;2022-12-29T16:40:52;1.00;;;1.00;;
67816;SDS011;54614;47.576;7.524;2022-12-29T16:43:30;1.00;;;1.00;;
67816;SDS011;54614;47.576;7.524;2022-12-29T16:46:26;0.90;;;0.90;;
67816;SDS011;54614;47.576;7.524;2022-12-29T16:48:55;0.90;;;0.90;;
67816;SDS011;54614;47.576;7.524;2022-12-29T16:51:29;0.80;;;0.80;;
67816;SDS011;54614;47.576;7.524;2022-12-29T16:53:57;0.90;;;0.90;;
67816;SDS011;54614;47.576;7.524;2022-12-29T16:56:26;0.80;;;0.80;;
67816;SDS011;54614;47.576;7.524;2022-12-29T16:59:08;0.90;;;0.90;;
67816;SDS011;54614;47.576;7.524;2022-12-29T17:01:54;1.00;;;1.00;;
67816;SDS011;54614;47.576;7.524;2022-12-29T17:04:22;1.00;;;1.00;;
67816;SDS011;54614;47.576;7.524;2022-12-29T17:06:48;1.10;;;1.10;;
67816;SDS011;54614;47.576;7.524;2022-12-29T17:09:18;1.00;;;1.00;;
67816;SDS011;54614;47.576;7.524;2022-12-29T17:11:56;0.97;;;0.97;;
67816;SDS011;54614;47.576;7.524;2022-12-29T17:14:31;1.00;;;1.00;;
67816;SDS011;54614;47.576;7.524;2022-12-29T17:19:45;1.10;;;1.10;;
67816;SDS011;54614;47.576;7.524;2022-12-29T17:22:18;1.00;;;1.00;;
67816;SDS011;54614;47.576;7.524;2022-12-29T17:24:50;0.90;;;0.90;;
67816;SDS011;54614;47.576;7.524;2022-12-29T17:30:24;0.90;;;0.90;;
67816;SDS011;54614;47.576;7.524;2022-12-29T17:33:14;0.90;;;0.90;;
67816;SDS011;54614;47.576;7.524;2022-12-29T17:35:44;0.90;;;0.90;;
67816;SDS011;54614;47.576;7.524;2022-12-29T17:38:17;0.87;;;0.87;;
67816;SDS011;54614;47.576;7.524;2022-12-29T17:40:48;0.90;;;0.90;;
67816;SDS011;54614;47.576;7.524;2022-12-29T17:43:14;1.10;;;1.10;;
67816;SDS011;54614;47.576;7.524;2022-12-29T17:45:42;1.00;;;1.00;;
67816;SDS011;54614;47.576;7.524;2022-12-29T17:48:12;0.90;;;0.90;;
67816;SDS011;54614;47.576;7.524;2022-12-29T17:50:40;0.97;;;0.97;;
67816;SDS011;54614;47.576;7.524;2022-12-29T17:53:14;0.90;;;0.90;;
67816;SDS011;54614;47.576;7.524;2022-12-29T17:55:45;0.90;;;0.90;;
67816;SDS011;54614;47.576;7.524;2022-12-29T18:00:49;0.90;;;0.90;;
67816;SDS011;54614;47.576;7.524;2022-12-29T18:03:23;0.90;;;0.90;;
67816;SDS011;54614;47.576;7.524;2022-12-29T18:05:58;0.90;;;0.90;;
67816;SDS011;54614;47.576;7.524;2022-12-29T18:08:25;0.87;;;0.87;;
67816;SDS011;54614;47.576;7.524;2022-12-29T18:10:54;0.90;;;0.90;;
67816;SDS011;54614;47.576;7.524;2022-12-29T18:13:31;0.83;;;0.83;;